Aberdeen, New Jersey
Current Conditions -  °F | °C
As of 8:55 AM on Monday 20 Oct 2014 (Local Time) from KLDJ Reporting Station
Clear Clear  
Wind Chill: 46°   Ceiling: Unl
Heat Index: 46°   Visibility: 10mi
Dew Point: 35°   Wind: 3mph
Humidity: 64%   Direction: 260°W
Pressure: 30.15"   Gusts: NA
Location:  40.4118°N, 74.2499°W
Report Text: KLDJ 201255Z AUTO 26003KT 10SM CLR 08/01 A3015 RMK AO2 T00790014
Loading
Personal Weather Stations






























Interactive Weather Map
Tropical Storm Tracking
New forecast layout! Learn more

10-Day Weather Forecast

Advertisements
Track Severe Weather on mobile